sensor_id;sensor_type;location;lat;lon;timestamp;P1;durP1;ratioP1;P2;durP2;ratioP2
63217;SDS011;49314;48.278;16.378;2024-03-02T00:01:18;55.78;;;46.28;;
63217;SDS011;49314;48.278;16.378;2024-03-02T00:03:44;50.90;;;44.97;;
63217;SDS011;49314;48.278;16.378;2024-03-02T00:06:09;53.53;;;44.13;;
63217;SDS011;49314;48.278;16.378;2024-03-02T00:08:35;53.63;;;44.53;;
63217;SDS011;49314;48.278;16.378;2024-03-02T00:11:00;52.35;;;42.95;;
63217;SDS011;49314;48.278;16.378;2024-03-02T00:13:27;50.78;;;45.00;;
63217;SDS011;49314;48.278;16.378;2024-03-02T00:15:55;51.17;;;43.75;;
63217;SDS011;49314;48.278;16.378;2024-03-02T00:18:30;52.03;;;43.00;;
63217;SDS011;49314;48.278;16.378;2024-03-02T00:20:55;52.08;;;44.78;;
63217;SDS011;49314;48.278;16.378;2024-03-02T00:23:21;57.45;;;46.45;;
63217;SDS011;49314;48.278;16.378;2024-03-02T00:25:48;52.25;;;45.53;;
63217;SDS011;49314;48.278;16.378;2024-03-02T00:33:06;54.60;;;43.70;;
63217;SDS011;49314;48.278;16.378;2024-03-02T00:35:32;54.45;;;44.65;;
63217;SDS011;49314;48.278;16.378;2024-03-02T00:37:57;48.42;;;41.35;;
63217;SDS011;49314;48.278;16.378;2024-03-02T00:40:22;53.03;;;44.10;;
63217;SDS011;49314;48.278;16.378;2024-03-02T00:42:52;46.78;;;41.80;;
63217;SDS011;49314;48.278;16.378;2024-03-02T00:45:17;52.28;;;44.72;;
63217;SDS011;49314;48.278;16.378;2024-03-02T00:47:43;48.03;;;42.08;;
63217;SDS011;49314;48.278;16.378;2024-03-02T00:50:08;54.70;;;45.42;;
63217;SDS011;49314;48.278;16.378;2024-03-02T00:52:34;53.00;;;47.00;;
63217;SDS011;49314;48.278;16.378;2024-03-02T00:54:59;54.85;;;44.40;;
63217;SDS011;49314;48.278;16.378;2024-03-02T00:57:25;50.95;;;45.22;;
63217;SDS011;49314;48.278;16.378;2024-03-02T00:59:51;55.05;;;45.22;;
63217;SDS011;49314;48.278;16.378;2024-03-02T01:02:16;51.33;;;45.28;;
63217;SDS011;49314;48.278;16.378;2024-03-02T01:04:41;56.17;;;45.22;;
63217;SDS011;49314;48.278;16.378;2024-03-02T01:07:07;52.70;;;45.40;;
63217;SDS011;49314;48.278;16.378;2024-03-02T01:09:32;50.15;;;43.00;;
63217;SDS011;49314;48.278;16.378;2024-03-02T01:11:57;47.05;;;39.55;;
63217;SDS011;49314;48.278;16.378;2024-03-02T01:14:22;48.28;;;42.28;;
63217;SDS011;49314;48.278;16.378;2024-03-02T01:16:48;47.00;;;41.78;;
63217;SDS011;49314;48.278;16.378;2024-03-02T01:19:14;49.03;;;40.15;;
63217;SDS011;49314;48.278;16.378;2024-03-02T01:21:40;47.90;;;40.50;;
63217;SDS011;49314;48.278;16.378;2024-03-02T01:24:05;46.88;;;41.50;;
63217;SDS011;49314;48.278;16.378;2024-03-02T01:26:30;55.17;;;46.97;;
63217;SDS011;49314;48.278;16.378;2024-03-02T01:28:55;60.38;;;49.38;;
63217;SDS011;49314;48.278;16.378;2024-03-02T01:31:21;68.95;;;49.67;;
63217;SDS011;49314;48.278;16.378;2024-03-02T01:33:46;59.60;;;46.28;;
63217;SDS011;49314;48.278;16.378;2024-03-02T01:36:11;63.55;;;50.35;;
63217;SDS011;49314;48.278;16.378;2024-03-02T01:38:36;61.88;;;48.08;;
63217;SDS011;49314;48.278;16.378;2024-03-02T01:41:02;61.10;;;50.03;;
63217;SDS011;49314;48.278;16.378;2024-03-02T01:43:27;59.70;;;48.97;;
63217;SDS011;49314;48.278;16.378;2024-03-02T01:45:52;56.63;;;45.25;;
63217;SDS011;49314;48.278;16.378;2024-03-02T01:48:18;62.20;;;47.40;;
63217;SDS011;49314;48.278;16.378;2024-03-02T01:50:44;59.97;;;45.97;;
63217;SDS011;49314;48.278;16.378;2024-03-02T01:53:09;62.40;;;48.25;;
63217;SDS011;49314;48.278;16.378;2024-03-02T01:55:35;63.60;;;48.25;;
63217;SDS011;49314;48.278;16.378;2024-03-02T01:58:00;58.50;;;45.47;;
63217;SDS011;49314;48.278;16.378;2024-03-02T02:00:26;55.53;;;46.38;;
63217;SDS011;49314;48.278;16.378;2024-03-02T02:02:51;57.67;;;47.35;;
63217;SDS011;49314;48.278;16.378;2024-03-02T02:05:17;53.90;;;42.05;;
63217;SDS011;49314;48.278;16.378;2024-03-02T02:07:42;50.97;;;42.92;;
63217;SDS011;49314;48.278;16.378;2024-03-02T02:10:08;53.70;;;42.67;;
63217;SDS011;49314;48.278;16.378;2024-03-02T02:12:33;52.42;;;44.13;;
63217;SDS011;49314;48.278;16.378;2024-03-02T02:14:59;47.28;;;41.65;;
63217;SDS011;49314;48.278;16.378;2024-03-02T02:17:25;48.25;;;39.30;;
63217;SDS011;49314;48.278;16.378;2024-03-02T02:19:50;54.10;;;45.10;;
63217;SDS011;49314;48.278;16.378;2024-03-02T02:22:15;51.28;;;41.38;;
63217;SDS011;49314;48.278;16.378;2024-03-02T02:24:41;51.78;;;42.40;;
63217;SDS011;49314;48.278;16.378;2024-03-02T02:27:06;53.50;;;42.00;;
63217;SDS011;49314;48.278;16.378;2024-03-02T02:29:32;50.42;;;40.92;;
63217;SDS011;49314;48.278;16.378;2024-03-02T02:31:57;49.30;;;42.35;;
63217;SDS011;49314;48.278;16.378;2024-03-02T02:34:22;55.35;;;45.33;;
63217;SDS011;49314;48.278;16.378;2024-03-02T02:36:48;51.72;;;43.22;;
63217;SDS011;49314;48.278;16.378;2024-03-02T02:39:14;48.65;;;41.78;;
63217;SDS011;49314;48.278;16.378;2024-03-02T02:41:40;46.60;;;41.03;;
63217;SDS011;49314;48.278;16.378;2024-03-02T02:44:06;46.85;;;40.38;;
63217;SDS011;49314;48.278;16.378;2024-03-02T02:46:31;47.63;;;38.88;;
63217;SDS011;49314;48.278;16.378;2024-03-02T02:48:56;45.97;;;39.17;;
63217;SDS011;49314;48.278;16.378;2024-03-02T02:51:21;48.05;;;41.65;;
63217;SDS011;49314;48.278;16.378;2024-03-02T02:53:47;45.83;;;38.92;;
63217;SDS011;49314;48.278;16.378;2024-03-02T02:56:12;50.40;;;41.45;;
63217;SDS011;49314;48.278;16.378;2024-03-02T02:58:37;48.28;;;42.80;;
63217;SDS011;49314;48.278;16.378;2024-03-02T03:01:03;53.63;;;41.65;;
63217;SDS011;49314;48.278;16.378;2024-03-02T03:03:28;58.00;;;43.78;;
63217;SDS011;49314;48.278;16.378;2024-03-02T03:05:54;54.35;;;44.95;;
63217;SDS011;49314;48.278;16.378;2024-03-02T03:08:19;55.10;;;44.42;;
63217;SDS011;49314;48.278;16.378;2024-03-02T03:10:44;59.25;;;45.78;;
63217;SDS011;49314;48.278;16.378;2024-03-02T03:13:10;57.72;;;44.92;;
63217;SDS011;49314;48.278;16.378;2024-03-02T03:15:35;53.42;;;42.85;;
63217;SDS011;49314;48.278;16.378;2024-03-02T03:18:04;51.95;;;43.08;;
63217;SDS011;49314;48.278;16.378;2024-03-02T03:20:29;54.60;;;43.03;;
63217;SDS011;49314;48.278;16.378;2024-03-02T03:22:55;52.28;;;42.47;;
63217;SDS011;49314;48.278;16.378;2024-03-02T03:25:20;54.33;;;43.78;;
63217;SDS011;49314;48.278;16.378;2024-03-02T03:27:45;53.63;;;42.67;;
63217;SDS011;49314;48.278;16.378;2024-03-02T03:30:11;48.17;;;41.22;;
63217;SDS011;49314;48.278;16.378;2024-03-02T03:32:36;52.90;;;43.38;;
63217;SDS011;49314;48.278;16.378;2024-03-02T03:35:02;48.30;;;41.45;;
63217;SDS011;49314;48.278;16.378;2024-03-02T03:37:27;48.95;;;40.42;;
63217;SDS011;49314;48.278;16.378;2024-03-02T03:39:57;54.83;;;41.40;;
63217;SDS011;49314;48.278;16.378;2024-03-02T03:42:22;49.28;;;39.30;;
63217;SDS011;49314;48.278;16.378;2024-03-02T03:44:48;51.63;;;42.25;;
63217;SDS011;49314;48.278;16.378;2024-03-02T03:47:13;50.25;;;38.55;;
63217;SDS011;49314;48.278;16.378;2024-03-02T03:49:38;55.83;;;45.85;;
63217;SDS011;49314;48.278;16.378;2024-03-02T03:52:03;55.97;;;42.55;;
63217;SDS011;49314;48.278;16.378;2024-03-02T03:54:29;61.90;;;50.45;;
63217;SDS011;49314;48.278;16.378;2024-03-02T03:56:54;73.38;;;54.80;;
63217;SDS011;49314;48.278;16.378;2024-03-02T03:59:19;55.03;;;43.03;;
63217;SDS011;49314;48.278;16.378;2024-03-02T04:01:45;57.95;;;45.58;;
63217;SDS011;49314;48.278;16.378;2024-03-02T04:04:10;58.72;;;45.05;;
63217;SDS011;49314;48.278;16.378;2024-03-02T04:06:35;61.33;;;42.72;;
63217;SDS011;49314;48.278;16.378;2024-03-02T04:09:00;53.40;;;40.72;;
63217;SDS011;49314;48.278;16.378;2024-03-02T04:11:26;51.65;;;42.72;;
63217;SDS011;49314;48.278;16.378;2024-03-02T04:13:51;57.45;;;41.60;;
63217;SDS011;49314;48.278;16.378;2024-03-02T04:16:16;53.72;;;41.65;;
63217;SDS011;49314;48.278;16.378;2024-03-02T04:18:42;52.15;;;41.75;;
63217;SDS011;49314;48.278;16.378;2024-03-02T04:21:07;50.40;;;38.10;;
63217;SDS011;49314;48.278;16.378;2024-03-02T04:23:32;47.63;;;38.03;;
63217;SDS011;49314;48.278;16.378;2024-03-02T04:25:58;53.45;;;39.50;;
63217;SDS011;49314;48.278;16.378;2024-03-02T04:28:23;74.88;;;39.40;;
63217;SDS011;49314;48.278;16.378;2024-03-02T04:30:48;65.28;;;37.95;;
63217;SDS011;49314;48.278;16.378;2024-03-02T04:33:13;54.83;;;38.92;;
63217;SDS011;49314;48.278;16.378;2024-03-02T04:35:39;63.75;;;40.10;;
63217;SDS011;49314;48.278;16.378;2024-03-02T04:38:04;83.03;;;38.90;;
63217;SDS011;49314;48.278;16.378;2024-03-02T04:40:29;52.75;;;36.33;;
63217;SDS011;49314;48.278;16.378;2024-03-02T04:42:54;51.17;;;39.70;;
63217;SDS011;49314;48.278;16.378;2024-03-02T04:45:20;66.80;;;37.75;;
63217;SDS011;49314;48.278;16.378;2024-03-02T04:47:45;71.47;;;39.83;;
63217;SDS011;49314;48.278;16.378;2024-03-02T04:50:10;63.15;;;39.00;;
63217;SDS011;49314;48.278;16.378;2024-03-02T04:52:36;50.67;;;37.50;;
63217;SDS011;49314;48.278;16.378;2024-03-02T04:55:01;83.10;;;40.53;;
63217;SDS011;49314;48.278;16.378;2024-03-02T04:57:50;59.05;;;38.22;;
63217;SDS011;49314;48.278;16.378;2024-03-02T05:00:16;68.35;;;38.40;;
63217;SDS011;49314;48.278;16.378;2024-03-02T05:02:41;55.92;;;37.25;;
63217;SDS011;49314;48.278;16.378;2024-03-02T05:05:06;56.90;;;39.95;;
63217;SDS011;49314;48.278;16.378;2024-03-02T05:07:32;46.80;;;36.25;;
63217;SDS011;49314;48.278;16.378;2024-03-02T05:09:57;62.88;;;40.45;;
63217;SDS011;49314;48.278;16.378;2024-03-02T05:12:22;55.58;;;39.97;;
63217;SDS011;49314;48.278;16.378;2024-03-02T05:15:06;57.90;;;37.20;;
63217;SDS011;49314;48.278;16.378;2024-03-02T05:17:32;53.03;;;37.58;;
63217;SDS011;49314;48.278;16.378;2024-03-02T05:19:57;51.10;;;41.15;;
63217;SDS011;49314;48.278;16.378;2024-03-02T05:22:23;53.45;;;39.65;;
63217;SDS011;49314;48.278;16.378;2024-03-02T05:24:48;55.78;;;40.72;;
63217;SDS011;49314;48.278;16.378;2024-03-02T05:27:13;56.97;;;39.65;;
63217;SDS011;49314;48.278;16.378;2024-03-02T05:29:39;53.75;;;39.78;;
63217;SDS011;49314;48.278;16.378;2024-03-02T05:32:05;67.10;;;40.63;;
63217;SDS011;49314;48.278;16.378;2024-03-02T05:34:30;60.13;;;40.38;;
63217;SDS011;49314;48.278;16.378;2024-03-02T05:36:57;60.95;;;39.97;;
63217;SDS011;49314;48.278;16.378;2024-03-02T05:39:23;80.70;;;43.35;;
63217;SDS011;49314;48.278;16.378;2024-03-02T05:41:48;74.38;;;44.17;;
63217;SDS011;49314;48.278;16.378;2024-03-02T05:44:13;99.10;;;42.80;;
63217;SDS011;49314;48.278;16.378;2024-03-02T05:46:40;148.98;;;46.15;;
63217;SDS011;49314;48.278;16.378;2024-03-02T05:49:05;122.00;;;41.58;;
63217;SDS011;49314;48.278;16.378;2024-03-02T05:51:34;98.78;;;42.40;;
63217;SDS011;49314;48.278;16.378;2024-03-02T05:53:59;109.82;;;41.38;;
63217;SDS011;49314;48.278;16.378;2024-03-02T05:56:24;188.50;;;52.78;;
63217;SDS011;49314;48.278;16.378;2024-03-02T05:58:49;97.32;;;50.92;;
63217;SDS011;49314;48.278;16.378;2024-03-02T06:01:15;106.15;;;55.55;;
63217;SDS011;49314;48.278;16.378;2024-03-02T06:03:40;112.10;;;47.75;;
63217;SDS011;49314;48.278;16.378;2024-03-02T06:06:05;126.50;;;45.45;;
63217;SDS011;49314;48.278;16.378;2024-03-02T06:08:31;111.53;;;51.00;;
63217;SDS011;49314;48.278;16.378;2024-03-02T06:10:56;170.38;;;86.28;;
63217;SDS011;49314;48.278;16.378;2024-03-02T06:13:22;75.07;;;40.47;;
63217;SDS011;49314;48.278;16.378;2024-03-02T06:15:47;144.90;;;68.45;;
63217;SDS011;49314;48.278;16.378;2024-03-02T06:18:12;102.65;;;66.82;;
63217;SDS011;49314;48.278;16.378;2024-03-02T06:20:38;121.45;;;54.28;;
63217;SDS011;49314;48.278;16.378;2024-03-02T06:23:03;115.10;;;50.55;;
63217;SDS011;49314;48.278;16.378;2024-03-02T06:25:29;123.45;;;49.75;;
63217;SDS011;49314;48.278;16.378;2024-03-02T06:27:54;185.98;;;55.92;;
63217;SDS011;49314;48.278;16.378;2024-03-02T06:30:19;109.20;;;45.25;;
63217;SDS011;49314;48.278;16.378;2024-03-02T06:32:44;119.93;;;44.25;;
63217;SDS011;49314;48.278;16.378;2024-03-02T06:35:10;129.40;;;42.85;;
63217;SDS011;49314;48.278;16.378;2024-03-02T06:37:38;143.30;;;47.55;;
63217;SDS011;49314;48.278;16.378;2024-03-02T06:40:05;146.38;;;48.05;;
63217;SDS011;49314;48.278;16.378;2024-03-02T06:42:32;104.07;;;44.45;;
63217;SDS011;49314;48.278;16.378;2024-03-02T06:44:58;87.47;;;44.10;;
63217;SDS011;49314;48.278;16.378;2024-03-02T06:47:23;129.00;;;46.25;;
63217;SDS011;49314;48.278;16.378;2024-03-02T06:49:49;93.35;;;44.55;;
63217;SDS011;49314;48.278;16.378;2024-03-02T06:52:14;129.90;;;47.33;;
63217;SDS011;49314;48.278;16.378;2024-03-02T06:54:39;104.28;;;43.50;;
63217;SDS011;49314;48.278;16.378;2024-03-02T06:57:04;105.15;;;44.67;;
63217;SDS011;49314;48.278;16.378;2024-03-02T06:59:30;123.32;;;45.55;;
63217;SDS011;49314;48.278;16.378;2024-03-02T07:01:55;73.80;;;41.95;;
63217;SDS011;49314;48.278;16.378;2024-03-02T07:04:21;79.05;;;42.75;;
63217;SDS011;49314;48.278;16.378;2024-03-02T07:06:47;98.03;;;46.20;;
63217;SDS011;49314;48.278;16.378;2024-03-02T07:09:12;93.90;;;47.70;;
63217;SDS011;49314;48.278;16.378;2024-03-02T07:11:37;131.10;;;78.75;;
63217;SDS011;49314;48.278;16.378;2024-03-02T07:14:02;138.40;;;66.38;;
63217;SDS011;49314;48.278;16.378;2024-03-02T07:16:28;117.10;;;70.68;;
63217;SDS011;49314;48.278;16.378;2024-03-02T07:18:55;118.40;;;63.67;;
63217;SDS011;49314;48.278;16.378;2024-03-02T07:21:21;107.47;;;63.33;;
63217;SDS011;49314;48.278;16.378;2024-03-02T07:23:47;121.68;;;89.07;;
63217;SDS011;49314;48.278;16.378;2024-03-02T07:26:13;94.28;;;56.97;;
63217;SDS011;49314;48.278;16.378;2024-03-02T07:28:38;90.85;;;53.83;;
63217;SDS011;49314;48.278;16.378;2024-03-02T07:31:04;98.28;;;59.33;;
63217;SDS011;49314;48.278;16.378;2024-03-02T07:33:29;85.70;;;46.72;;
63217;SDS011;49314;48.278;16.378;2024-03-02T07:35:55;87.65;;;75.47;;
63217;SDS011;49314;48.278;16.378;2024-03-02T07:38:20;76.60;;;48.63;;
63217;SDS011;49314;48.278;16.378;2024-03-02T07:40:46;96.40;;;58.72;;
63217;SDS011;49314;48.278;16.378;2024-03-02T07:43:12;83.50;;;48.88;;
63217;SDS011;49314;48.278;16.378;2024-03-02T07:45:37;83.30;;;48.50;;
63217;SDS011;49314;48.278;16.378;2024-03-02T07:48:02;99.65;;;59.25;;
63217;SDS011;49314;48.278;16.378;2024-03-02T07:50:31;104.50;;;63.95;;
63217;SDS011;49314;48.278;16.378;2024-03-02T07:52:56;91.60;;;58.50;;
63217;SDS011;49314;48.278;16.378;2024-03-02T07:55:21;89.97;;;52.78;;
63217;SDS011;49314;48.278;16.378;2024-03-02T07:57:48;91.88;;;54.17;;
63217;SDS011;49314;48.278;16.378;2024-03-02T08:00:14;92.47;;;59.88;;
63217;SDS011;49314;48.278;16.378;2024-03-02T08:02:40;77.20;;;45.90;;
63217;SDS011;49314;48.278;16.378;2024-03-02T08:05:06;75.00;;;46.40;;
63217;SDS011;49314;48.278;16.378;2024-03-02T08:07:31;74.82;;;44.20;;
63217;SDS011;49314;48.278;16.378;2024-03-02T08:09:56;64.65;;;41.50;;
63217;SDS011;49314;48.278;16.378;2024-03-02T08:12:22;62.53;;;46.28;;
63217;SDS011;49314;48.278;16.378;2024-03-02T08:14:48;61.22;;;44.55;;
63217;SDS011;49314;48.278;16.378;2024-03-02T08:17:13;56.25;;;39.95;;
63217;SDS011;49314;48.278;16.378;2024-03-02T08:19:39;69.13;;;54.70;;
63217;SDS011;49314;48.278;16.378;2024-03-02T08:22:04;56.03;;;39.53;;
63217;SDS011;49314;48.278;16.378;2024-03-02T08:24:29;59.65;;;41.50;;
63217;SDS011;49314;48.278;16.378;2024-03-02T08:26:55;56.17;;;42.42;;
63217;SDS011;49314;48.278;16.378;2024-03-02T08:29:20;65.85;;;43.70;;
63217;SDS011;49314;48.278;16.378;2024-03-02T08:31:45;60.55;;;40.85;;
63217;SDS011;49314;48.278;16.378;2024-03-02T08:34:10;58.92;;;41.65;;
63217;SDS011;49314;48.278;16.378;2024-03-02T08:36:36;55.03;;;39.85;;
63217;SDS011;49314;48.278;16.378;2024-03-02T08:39:01;73.35;;;47.72;;
63217;SDS011;49314;48.278;16.378;2024-03-02T08:41:28;65.40;;;45.47;;
63217;SDS011;49314;48.278;16.378;2024-03-02T08:43:53;62.17;;;41.67;;
63217;SDS011;49314;48.278;16.378;2024-03-02T08:46:19;61.97;;;46.80;;
63217;SDS011;49314;48.278;16.378;2024-03-02T08:48:44;68.18;;;43.05;;
63217;SDS011;49314;48.278;16.378;2024-03-02T08:51:09;70.55;;;46.83;;
63217;SDS011;49314;48.278;16.378;2024-03-02T08:53:35;69.70;;;51.10;;
63217;SDS011;49314;48.278;16.378;2024-03-02T08:56:01;62.55;;;43.08;;
63217;SDS011;49314;48.278;16.378;2024-03-02T08:58:26;69.72;;;44.00;;
63217;SDS011;49314;48.278;16.378;2024-03-02T09:00:51;60.85;;;41.78;;
63217;SDS011;49314;48.278;16.378;2024-03-02T09:03:16;69.20;;;48.47;;
63217;SDS011;49314;48.278;16.378;2024-03-02T09:05:42;75.05;;;47.70;;
63217;SDS011;49314;48.278;16.378;2024-03-02T09:08:08;70.20;;;47.40;;
63217;SDS011;49314;48.278;16.378;2024-03-02T09:10:33;73.28;;;53.33;;
63217;SDS011;49314;48.278;16.378;2024-03-02T09:12:58;64.70;;;47.95;;
63217;SDS011;49314;48.278;16.378;2024-03-02T09:15:24;83.30;;;74.28;;
63217;SDS011;49314;48.278;16.378;2024-03-02T09:17:49;61.85;;;47.03;;
63217;SDS011;49314;48.278;16.378;2024-03-02T09:20:15;56.83;;;46.83;;
63217;SDS011;49314;48.278;16.378;2024-03-02T09:22:41;64.25;;;46.80;;
63217;SDS011;49314;48.278;16.378;2024-03-02T09:25:07;58.10;;;43.00;;
63217;SDS011;49314;48.278;16.378;2024-03-02T09:27:35;58.08;;;47.10;;
63217;SDS011;49314;48.278;16.378;2024-03-02T09:30:01;55.75;;;43.92;;
63217;SDS011;49314;48.278;16.378;2024-03-02T09:32:26;57.20;;;47.17;;
63217;SDS011;49314;48.278;16.378;2024-03-02T09:34:51;57.10;;;49.00;;
63217;SDS011;49314;48.278;16.378;2024-03-02T09:37:18;59.05;;;43.35;;
63217;SDS011;49314;48.278;16.378;2024-03-02T09:39:43;61.20;;;46.65;;
63217;SDS011;49314;48.278;16.378;2024-03-02T09:42:10;56.63;;;45.58;;
63217;SDS011;49314;48.278;16.378;2024-03-02T09:44:35;58.60;;;47.22;;
63217;SDS011;49314;48.278;16.378;2024-03-02T09:47:00;54.85;;;44.80;;
63217;SDS011;49314;48.278;16.378;2024-03-02T09:49:26;55.38;;;46.78;;
63217;SDS011;49314;48.278;16.378;2024-03-02T09:51:51;54.90;;;43.97;;
63217;SDS011;49314;48.278;16.378;2024-03-02T09:54:17;57.85;;;44.58;;
63217;SDS011;49314;48.278;16.378;2024-03-02T09:56:42;54.65;;;44.25;;
63217;SDS011;49314;48.278;16.378;2024-03-02T09:59:08;58.53;;;44.85;;
63217;SDS011;49314;48.278;16.378;2024-03-02T10:01:34;53.17;;;44.50;;
63217;SDS011;49314;48.278;16.378;2024-03-02T10:04:00;57.58;;;44.80;;
63217;SDS011;49314;48.278;16.378;2024-03-02T10:06:26;55.70;;;43.72;;
63217;SDS011;49314;48.278;16.378;2024-03-02T10:08:52;50.90;;;43.15;;
63217;SDS011;49314;48.278;16.378;2024-03-02T10:11:27;52.45;;;42.28;;
63217;SDS011;49314;48.278;16.378;2024-03-02T10:16:33;49.10;;;41.10;;
63217;SDS011;49314;48.278;16.378;2024-03-02T10:18:58;49.72;;;42.97;;
63217;SDS011;49314;48.278;16.378;2024-03-02T10:21:39;51.05;;;42.70;;
63217;SDS011;49314;48.278;16.378;2024-03-02T10:24:08;44.55;;;39.65;;
63217;SDS011;49314;48.278;16.378;2024-03-02T10:26:33;48.67;;;42.40;;
63217;SDS011;49314;48.278;16.378;2024-03-02T10:28:58;50.22;;;41.85;;
63217;SDS011;49314;48.278;16.378;2024-03-02T10:31:24;54.35;;;45.90;;
63217;SDS011;49314;48.278;16.378;2024-03-02T10:33:53;48.58;;;40.92;;
63217;SDS011;49314;48.278;16.378;2024-03-02T10:36:18;49.28;;;43.10;;
63217;SDS011;49314;48.278;16.378;2024-03-02T10:38:44;48.80;;;41.80;;
63217;SDS011;49314;48.278;16.378;2024-03-02T10:41:10;50.65;;;44.00;;
63217;SDS011;49314;48.278;16.378;2024-03-02T10:43:35;47.47;;;42.40;;
63217;SDS011;49314;48.278;16.378;2024-03-02T10:46:01;52.13;;;42.45;;
63217;SDS011;49314;48.278;16.378;2024-03-02T10:48:26;48.28;;;43.03;;
63217;SDS011;49314;48.278;16.378;2024-03-02T10:50:52;49.65;;;42.80;;
63217;SDS011;49314;48.278;16.378;2024-03-02T10:53:18;60.38;;;49.75;;
63217;SDS011;49314;48.278;16.378;2024-03-02T10:55:43;59.58;;;48.45;;
63217;SDS011;49314;48.278;16.378;2024-03-02T10:58:09;55.53;;;46.60;;
63217;SDS011;49314;48.278;16.378;2024-03-02T11:00:37;54.50;;;45.22;;
63217;SDS011;49314;48.278;16.378;2024-03-02T11:05:30;54.35;;;46.03;;
63217;SDS011;49314;48.278;16.378;2024-03-02T11:08:07;72.88;;;65.03;;
63217;SDS011;49314;48.278;16.378;2024-03-02T11:11:33;54.47;;;48.17;;
63217;SDS011;49314;48.278;16.378;2024-03-02T11:13:31;58.85;;;46.47;;
63217;SDS011;49314;48.278;16.378;2024-03-02T11:15:59;63.05;;;49.25;;
63217;SDS011;49314;48.278;16.378;2024-03-02T11:18:24;54.00;;;46.00;;
63217;SDS011;49314;48.278;16.378;2024-03-02T11:20:50;54.92;;;45.92;;
63217;SDS011;49314;48.278;16.378;2024-03-02T11:23:15;53.45;;;41.63;;
63217;SDS011;49314;48.278;16.378;2024-03-02T11:25:41;54.03;;;44.33;;
63217;SDS011;49314;48.278;16.378;2024-03-02T11:28:06;58.63;;;50.42;;
63217;SDS011;49314;48.278;16.378;2024-03-02T11:33:00;56.53;;;42.42;;
63217;SDS011;49314;48.278;16.378;2024-03-02T11:35:26;56.42;;;46.40;;
63217;SDS011;49314;48.278;16.378;2024-03-02T11:37:51;50.45;;;42.33;;
63217;SDS011;49314;48.278;16.378;2024-03-02T11:40:21;55.97;;;46.55;;
63217;SDS011;49314;48.278;16.378;2024-03-02T11:42:46;50.70;;;42.53;;
63217;SDS011;49314;48.278;16.378;2024-03-02T11:45:12;53.97;;;45.88;;
63217;SDS011;49314;48.278;16.378;2024-03-02T11:47:37;50.03;;;42.05;;
63217;SDS011;49314;48.278;16.378;2024-03-02T11:50:02;52.00;;;42.08;;
63217;SDS011;49314;48.278;16.378;2024-03-02T11:52:31;47.67;;;42.38;;
63217;SDS011;49314;48.278;16.378;2024-03-02T11:54:58;45.83;;;40.85;;
63217;SDS011;49314;48.278;16.378;2024-03-02T11:57:23;45.80;;;39.30;;
63217;SDS011;49314;48.278;16.378;2024-03-02T11:59:48;42.90;;;36.30;;
63217;SDS011;49314;48.278;16.378;2024-03-02T12:02:17;49.20;;;40.75;;
63217;SDS011;49314;48.278;16.378;2024-03-02T12:04:43;49.22;;;42.38;;
63217;SDS011;49314;48.278;16.378;2024-03-02T12:07:09;47.10;;;41.78;;
63217;SDS011;49314;48.278;16.378;2024-03-02T12:09:35;44.92;;;38.15;;
63217;SDS011;49314;48.278;16.378;2024-03-02T12:12:09;45.70;;;39.92;;
63217;SDS011;49314;48.278;16.378;2024-03-02T12:14:38;47.33;;;41.97;;
63217;SDS011;49314;48.278;16.378;2024-03-02T12:17:04;43.70;;;38.92;;
63217;SDS011;49314;48.278;16.378;2024-03-02T12:19:30;45.78;;;39.28;;
63217;SDS011;49314;48.278;16.378;2024-03-02T12:21:56;49.22;;;39.92;;
63217;SDS011;49314;48.278;16.378;2024-03-02T12:24:21;48.15;;;40.92;;
63217;SDS011;49314;48.278;16.378;2024-03-02T12:26:47;47.75;;;42.17;;
63217;SDS011;49314;48.278;16.378;2024-03-02T12:29:13;45.25;;;40.53;;
63217;SDS011;49314;48.278;16.378;2024-03-02T12:31:40;44.78;;;39.58;;
63217;SDS011;49314;48.278;16.378;2024-03-02T12:34:05;45.05;;;40.17;;
63217;SDS011;49314;48.278;16.378;2024-03-02T12:36:36;46.78;;;40.30;;
63217;SDS011;49314;48.278;16.378;2024-03-02T12:39:01;47.35;;;39.42;;
63217;SDS011;49314;48.278;16.378;2024-03-02T12:41:27;45.22;;;38.78;;
63217;SDS011;49314;48.278;16.378;2024-03-02T12:43:52;43.90;;;36.78;;
63217;SDS011;49314;48.278;16.378;2024-03-02T12:46:19;44.33;;;38.13;;
63217;SDS011;49314;48.278;16.378;2024-03-02T12:48:44;43.38;;;36.17;;
63217;SDS011;49314;48.278;16.378;2024-03-02T12:51:10;43.55;;;39.08;;
63217;SDS011;49314;48.278;16.378;2024-03-02T12:53:35;44.03;;;36.80;;
63217;SDS011;49314;48.278;16.378;2024-03-02T12:56:01;37.60;;;33.60;;
63217;SDS011;49314;48.278;16.378;2024-03-02T12:58:26;43.42;;;38.25;;
63217;SDS011;49314;48.278;16.378;2024-03-02T13:01:14;46.47;;;41.67;;
63217;SDS011;49314;48.278;16.378;2024-03-02T13:03:39;40.55;;;35.75;;
63217;SDS011;49314;48.278;16.378;2024-03-02T13:06:08;37.42;;;33.35;;
63217;SDS011;49314;48.278;16.378;2024-03-02T13:08:33;41.17;;;36.70;;
63217;SDS011;49314;48.278;16.378;2024-03-02T13:10:59;40.03;;;35.90;;
63217;SDS011;49314;48.278;16.378;2024-03-02T13:13:24;39.35;;;35.10;;
63217;SDS011;49314;48.278;16.378;2024-03-02T13:15:49;38.10;;;34.10;;
63217;SDS011;49314;48.278;16.378;2024-03-02T13:18:17;40.05;;;35.58;;
63217;SDS011;49314;48.278;16.378;2024-03-02T13:20:42;40.03;;;35.83;;
63217;SDS011;49314;48.278;16.378;2024-03-02T13:23:08;40.83;;;35.58;;
63217;SDS011;49314;48.278;16.378;2024-03-02T13:25:33;44.03;;;37.00;;
63217;SDS011;49314;48.278;16.378;2024-03-02T13:27:59;41.33;;;36.83;;
63217;SDS011;49314;48.278;16.378;2024-03-02T13:30:24;38.80;;;34.72;;
63217;SDS011;49314;48.278;16.378;2024-03-02T13:32:49;39.95;;;35.08;;
63217;SDS011;49314;48.278;16.378;2024-03-02T13:35:15;41.78;;;34.83;;
63217;SDS011;49314;48.278;16.378;2024-03-02T13:37:40;41.80;;;37.13;;
63217;SDS011;49314;48.278;16.378;2024-03-02T13:40:05;39.53;;;35.20;;
63217;SDS011;49314;48.278;16.378;2024-03-02T13:42:31;37.13;;;33.13;;
63217;SDS011;49314;48.278;16.378;2024-03-02T13:44:56;44.53;;;39.80;;
63217;SDS011;49314;48.278;16.378;2024-03-02T13:47:22;35.28;;;31.15;;
63217;SDS011;49314;48.278;16.378;2024-03-02T13:49:47;36.50;;;32.72;;
63217;SDS011;49314;48.278;16.378;2024-03-02T13:52:14;42.35;;;37.95;;
63217;SDS011;49314;48.278;16.378;2024-03-02T13:54:39;38.22;;;34.10;;
63217;SDS011;49314;48.278;16.378;2024-03-02T13:57:05;39.28;;;33.78;;
63217;SDS011;49314;48.278;16.378;2024-03-02T13:59:30;38.80;;;34.72;;
63217;SDS011;49314;48.278;16.378;2024-03-02T14:01:55;40.55;;;36.10;;
63217;SDS011;49314;48.278;16.378;2024-03-02T14:04:21;36.92;;;31.88;;
63217;SDS011;49314;48.278;16.378;2024-03-02T14:06:46;40.53;;;34.95;;
63217;SDS011;49314;48.278;16.378;2024-03-02T14:09:11;40.95;;;35.75;;
63217;SDS011;49314;48.278;16.378;2024-03-02T14:11:37;38.35;;;33.67;;
63217;SDS011;49314;48.278;16.378;2024-03-02T14:14:02;40.13;;;35.85;;